Observations for CROTONE, Italy (LIBC)

LIBC 191650Z 20005KT CAVOK 20/17 Q1018  
LIBC 191550Z 20008KT CAVOK 21/17 Q1018  
LIBC 191450Z 20011KT CAVOK 22/17 Q1018  
LIBC 191350Z 20012KT 170V230 CAVOK 22/16 Q1018  
LIBC 191250Z 19012KT CAVOK 23/15 Q1018  
LIBC 191150Z 19011KT CAVOK 23/15 Q1018  
LIBC 191050Z 19011KT CAVOK 23/14 Q1019  
LIBC 190950Z 20009KT CAVOK 23/13 Q1019  
LIBC 190850Z 19006KT 150V220 CAVOK 23/13 Q1019  
LIBC 190750Z 20006KT CAVOK 21/14 Q1019  
LIBC 190650Z 25002KT CAVOK 19/13 Q1019  
LIBC 190550Z 00000KT CAVOK 15/11 Q1018  
LIBC 190500Z 27001KT CAVOK 14/11 Q1018